Time;durP1;ratioP1;P1;durP2;ratioP2;P2;SDS_P1;SDS_P2;PMS_P1;PMS_P2;Temp;Humidity;BMP_temperature;BMP_pressure;BME280_temperature;BME280_humidity;BME280_pressure;Samples;Min_cycle;Max_cycle;Signal;HPM_P1;HPM_P2
2023/12/04 00:01:16;;;;;;;17.38;8.73;;;;;;;;;;5066462;28;20028;-83
2023/12/04 00:03:42;;;;;;;16.05;8.38;;;;;;;;;;5062943;28;20013;-83
2023/12/04 00:06:07;;;;;;;16.23;8.13;;;;;;;;;;5067816;28;20118;-83
2023/12/04 00:08:33;;;;;;;18.02;8.63;;;;;;;;;;5057785;28;20449;-80
2023/12/04 00:10:58;;;;;;;15.88;8.70;;;;;;;;;;5069242;28;20559;-80
2023/12/04 00:13:24;;;;;;;19.60;9.35;;;;;;;;;;5060658;28;20032;-81
2023/12/04 00:15:49;;;;;;;18.50;8.65;;;;;;;;;;5062132;28;20036;-81
2023/12/04 00:18:15;;;;;;;18.05;8.50;;;;;;;;;;5064886;28;20398;-80
2023/12/04 00:20:40;;;;;;;20.08;8.93;;;;;;;;;;5065738;28;20048;-81
2023/12/04 00:23:06;;;;;;;17.98;8.25;;;;;;;;;;5068997;28;20055;-80
2023/12/04 00:25:31;;;;;;;17.42;8.73;;;;;;;;;;5061758;28;20043;-81
2023/12/04 00:27:56;;;;;;;18.30;8.23;;;;;;;;;;5059277;28;20036;-80
2023/12/04 00:30:22;;;;;;;20.75;9.00;;;;;;;;;;5063008;28;20402;-81
2023/12/04 00:32:47;;;;;;;17.30;8.60;;;;;;;;;;5061245;28;20029;-81
2023/12/04 00:35:13;;;;;;;19.15;8.70;;;;;;;;;;5061604;28;20427;-80
2023/12/04 00:37:39;;;;;;;17.15;8.13;;;;;;;;;;5060563;28;20029;-81
2023/12/04 00:40:07;;;;;;;18.05;8.65;;;;;;;;;;5060325;28;20041;-81
2023/12/04 00:42:32;;;;;;;15.90;8.00;;;;;;;;;;5060773;28;20518;-81
2023/12/04 00:44:57;;;;;;;18.50;8.93;;;;;;;;;;5089616;28;20128;-79
2023/12/04 00:47:23;;;;;;;19.40;9.40;;;;;;;;;;5065588;28;20414;-80
2023/12/04 00:49:48;;;;;;;17.73;8.63;;;;;;;;;;5060547;28;20027;-81
2023/12/04 00:52:16;;;;;;;18.65;8.82;;;;;;;;;;5062494;28;20383;-81
2023/12/04 00:54:41;;;;;;;18.20;8.55;;;;;;;;;;5059751;28;20486;-81
2023/12/04 00:57:07;;;;;;;17.35;8.35;;;;;;;;;;5059645;28;20104;-81
2023/12/04 00:59:34;;;;;;;19.10;8.80;;;;;;;;;;5059852;28;20528;-81
2023/12/04 01:01:59;;;;;;;17.27;8.98;;;;;;;;;;5060799;28;20021;-81
2023/12/04 01:04:24;;;;;;;20.02;9.15;;;;;;;;;;5064774;28;20023;-81
2023/12/04 01:06:51;;;;;;;17.65;8.50;;;;;;;;;;5064230;28;20453;-81
2023/12/04 01:09:16;;;;;;;19.80;8.50;;;;;;;;;;5065340;28;20135;-81
2023/12/04 01:11:43;;;;;;;18.33;8.25;;;;;;;;;;5063769;28;20107;-81
2023/12/04 01:14:08;;;;;;;18.05;8.43;;;;;;;;;;5060239;28;20032;-81
2023/12/04 01:16:34;;;;;;;20.15;8.80;;;;;;;;;;5062247;28;20027;-82
2023/12/04 01:18:59;;;;;;;18.88;8.50;;;;;;;;;;5063041;28;20033;-81
2023/12/04 01:21:25;;;;;;;17.65;8.45;;;;;;;;;;5063330;28;20064;-80
2023/12/04 01:23:50;;;;;;;17.48;8.65;;;;;;;;;;5064491;28;20029;-81
2023/12/04 01:26:15;;;;;;;16.45;8.85;;;;;;;;;;5059735;28;20021;-80
2023/12/04 01:28:41;;;;;;;18.83;8.73;;;;;;;;;;5091759;28;20024;-81
2023/12/04 01:31:06;;;;;;;17.80;7.82;;;;;;;;;;5059050;28;20465;-80
2023/12/04 01:33:31;;;;;;;16.60;8.10;;;;;;;;;;5062351;28;20425;-81
2023/12/04 01:35:57;;;;;;;16.88;8.13;;;;;;;;;;5065758;28;20074;-80
2023/12/04 01:38:22;;;;;;;16.67;7.85;;;;;;;;;;5062008;28;20051;-80
2023/12/04 01:40:48;;;;;;;18.42;8.20;;;;;;;;;;5065433;28;20051;-81
2023/12/04 01:43:13;;;;;;;16.42;7.97;;;;;;;;;;5063746;28;20374;-80
2023/12/04 01:45:38;;;;;;;15.50;7.93;;;;;;;;;;5063185;28;20025;-81
2023/12/04 01:48:06;;;;;;;17.15;8.32;;;;;;;;;;5060824;28;20028;-81
2023/12/04 01:50:33;;;;;;;16.23;7.63;;;;;;;;;;5068511;28;20091;-81
2023/12/04 01:52:58;;;;;;;17.15;8.82;;;;;;;;;;5059753;28;20025;-80
2023/12/04 01:55:24;;;;;;;16.80;8.30;;;;;;;;;;5061338;28;20029;-81
2023/12/04 01:57:49;;;;;;;17.80;8.48;;;;;;;;;;5066398;28;20086;-81
2023/12/04 02:00:15;;;;;;;16.90;8.35;;;;;;;;;;5058059;28;20028;-80
2023/12/04 02:02:42;;;;;;;17.08;8.13;;;;;;;;;;5059335;28;20869;-81
2023/12/04 02:05:11;;;;;;;15.75;7.80;;;;;;;;;;5062626;28;20025;-80
2023/12/04 02:07:36;;;;;;;14.82;7.45;;;;;;;;;;5057516;28;20398;-81
2023/12/04 02:10:03;;;;;;;18.30;8.57;;;;;;;;;;5067232;28;20078;-80
2023/12/04 02:12:29;;;;;;;19.17;8.57;;;;;;;;;;5065129;28;20124;-80
2023/12/04 02:14:54;;;;;;;19.33;8.60;;;;;;;;;;5069171;28;20454;-81
2023/12/04 02:17:21;;;;;;;15.02;8.00;;;;;;;;;;5067716;28;20478;-81
2023/12/04 02:19:46;;;;;;;17.15;7.93;;;;;;;;;;5070413;28;20098;-81
2023/12/04 02:22:11;;;;;;;18.17;8.02;;;;;;;;;;5062925;28;20408;-81
2023/12/04 02:24:37;;;;;;;15.57;7.47;;;;;;;;;;5063079;28;20187;-80
2023/12/04 02:27:11;;;;;;;16.30;7.90;;;;;;;;;;5081534;28;20066;-83
2023/12/04 02:29:44;;;;;;;15.05;7.78;;;;;;;;;;5066407;28;20040;-84
2023/12/04 02:32:15;;;;;;;17.88;8.15;;;;;;;;;;5063856;28;20021;-84
2023/12/04 02:34:43;;;;;;;15.10;7.80;;;;;;;;;;5067046;28;20040;-83
2023/12/04 02:37:10;;;;;;;15.98;7.78;;;;;;;;;;5071883;28;20072;-84
2023/12/04 02:39:36;;;;;;;16.60;7.88;;;;;;;;;;5068857;28;20032;-83
2023/12/04 02:42:03;;;;;;;16.05;8.27;;;;;;;;;;5060934;28;20497;-83
2023/12/04 02:44:28;;;;;;;17.80;7.93;;;;;;;;;;5065065;28;20430;-83
2023/12/04 02:46:54;;;;;;;15.80;8.02;;;;;;;;;;5071834;28;20050;-83
2023/12/04 02:49:19;;;;;;;15.85;7.78;;;;;;;;;;5060794;28;20364;-83
2023/12/04 02:51:44;;;;;;;16.45;7.97;;;;;;;;;;5066041;28;20430;-84
2023/12/04 02:54:10;;;;;;;15.18;7.70;;;;;;;;;;5062040;28;20036;-83
2023/12/04 02:56:36;;;;;;;16.35;7.53;;;;;;;;;;5067432;28;20044;-83
2023/12/04 02:59:03;;;;;;;16.10;7.63;;;;;;;;;;5063243;28;20025;-83
2023/12/04 03:01:28;;;;;;;14.13;7.13;;;;;;;;;;5062104;28;20547;-83
2023/12/04 03:03:54;;;;;;;15.05;7.28;;;;;;;;;;5065946;28;20028;-84
2023/12/04 03:06:19;;;;;;;14.98;7.57;;;;;;;;;;5096422;28;20494;-83
2023/12/04 03:08:45;;;;;;;18.23;7.38;;;;;;;;;;5067473;28;20044;-83
2023/12/04 03:11:10;;;;;;;14.48;7.32;;;;;;;;;;5064348;28;20033;-84
2023/12/04 03:13:35;;;;;;;15.15;7.68;;;;;;;;;;5060128;28;20021;-84
2023/12/04 03:16:01;;;;;;;14.02;7.60;;;;;;;;;;5062179;28;20029;-83
2023/12/04 03:18:28;;;;;;;14.05;6.60;;;;;;;;;;5062839;28;20040;-83
2023/12/04 03:20:54;;;;;;;17.13;7.47;;;;;;;;;;5067320;28;20028;-82
2023/12/04 03:23:19;;;;;;;13.30;6.35;;;;;;;;;;5064146;28;20025;-83
2023/12/04 03:25:45;;;;;;;14.75;7.13;;;;;;;;;;5064012;28;20036;-83
2023/12/04 03:28:10;;;;;;;15.55;7.75;;;;;;;;;;5066483;28;20394;-83
2023/12/04 03:30:35;;;;;;;14.20;7.32;;;;;;;;;;5062581;28;20033;-83
2023/12/04 03:33:01;;;;;;;15.02;7.55;;;;;;;;;;5064413;28;20382;-83
2023/12/04 03:35:26;;;;;;;14.52;7.22;;;;;;;;;;5063492;28;20056;-83
2023/12/04 03:37:52;;;;;;;16.77;7.70;;;;;;;;;;5067566;28;20033;-83
2023/12/04 03:40:19;;;;;;;13.80;6.95;;;;;;;;;;5065083;28;20032;-82
2023/12/04 03:42:44;;;;;;;14.52;7.43;;;;;;;;;;5061844;28;20077;-84
2023/12/04 03:45:10;;;;;;;14.18;6.55;;;;;;;;;;5063688;28;20433;-83
2023/12/04 03:47:35;;;;;;;14.30;7.53;;;;;;;;;;5063609;28;20135;-84
2023/12/04 03:50:00;;;;;;;14.05;6.53;;;;;;;;;;5065700;28;20039;-83
2023/12/04 03:52:26;;;;;;;15.35;7.50;;;;;;;;;;5065422;28;20033;-83
2023/12/04 03:54:51;;;;;;;12.75;6.95;;;;;;;;;;5062418;28;20021;-84
2023/12/04 03:57:16;;;;;;;14.02;7.03;;;;;;;;;;5065102;28;20029;-82
2023/12/04 03:59:43;;;;;;;14.70;7.35;;;;;;;;;;5059282;28;20644;-83
2023/12/04 04:02:09;;;;;;;15.95;7.22;;;;;;;;;;5063498;28;20497;-83
2023/12/04 04:04:34;;;;;;;15.60;7.15;;;;;;;;;;5067573;28;20024;-83
2023/12/04 04:06:59;;;;;;;14.88;6.63;;;;;;;;;;5064330;28;20040;-83
2023/12/04 04:09:25;;;;;;;13.40;6.38;;;;;;;;;;5065133;28;20028;-83
2023/12/04 04:11:50;;;;;;;11.88;6.07;;;;;;;;;;5064585;28;20032;-83
2023/12/04 04:14:15;;;;;;;12.52;6.75;;;;;;;;;;5067465;28;20029;-84
2023/12/04 04:16:41;;;;;;;11.55;6.22;;;;;;;;;;5062369;28;20040;-84
2023/12/04 04:19:06;;;;;;;16.75;6.60;;;;;;;;;;5063242;28;20024;-83
2023/12/04 04:21:32;;;;;;;13.35;6.50;;;;;;;;;;5064609;28;20021;-83
2023/12/04 04:23:57;;;;;;;12.45;6.32;;;;;;;;;;5094287;28;20017;-83
2023/12/04 04:26:22;;;;;;;12.35;6.43;;;;;;;;;;5059947;28;20040;-83
2023/12/04 04:28:48;;;;;;;13.02;6.80;;;;;;;;;;5064728;28;20418;-82
2023/12/04 04:31:13;;;;;;;14.45;6.93;;;;;;;;;;5067904;28;20035;-83
2023/12/04 04:33:38;;;;;;;15.82;6.70;;;;;;;;;;5065248;28;20051;-84
2023/12/04 04:36:04;;;;;;;14.02;6.68;;;;;;;;;;5062542;28;20021;-83
2023/12/04 04:38:30;;;;;;;19.52;6.65;;;;;;;;;;5068076;28;20371;-83
2023/12/04 04:40:56;;;;;;;13.05;6.32;;;;;;;;;;5064951;28;20402;-83
2023/12/04 04:43:22;;;;;;;14.95;6.28;;;;;;;;;;5065509;28;20462;-83
2023/12/04 04:45:48;;;;;;;13.70;6.57;;;;;;;;;;5068667;28;20122;-84
2023/12/04 04:48:13;;;;;;;12.07;6.65;;;;;;;;;;5082210;28;20056;-83
2023/12/04 04:50:39;;;;;;;12.82;6.82;;;;;;;;;;5062382;28;20056;-83
2023/12/04 04:53:04;;;;;;;13.57;6.90;;;;;;;;;;5063519;28;20036;-84
2023/12/04 04:55:31;;;;;;;15.32;7.25;;;;;;;;;;5064143;28;20028;-84
2023/12/04 04:57:57;;;;;;;12.10;6.63;;;;;;;;;;5063187;28;20028;-81
2023/12/04 05:00:23;;;;;;;15.63;7.35;;;;;;;;;;5059775;28;20039;-81
2023/12/04 05:02:49;;;;;;;12.82;6.85;;;;;;;;;;5063053;28;20032;-80
2023/12/04 05:05:14;;;;;;;14.45;7.03;;;;;;;;;;5066399;28;20042;-81
2023/12/04 05:07:39;;;;;;;14.30;7.30;;;;;;;;;;5067300;28;20454;-81
2023/12/04 05:10:05;;;;;;;13.15;6.82;;;;;;;;;;5071452;28;20028;-81
2023/12/04 05:12:32;;;;;;;13.48;7.35;;;;;;;;;;5067998;28;20028;-81
2023/12/04 05:14:59;;;;;;;14.48;7.78;;;;;;;;;;5061927;28;20031;-80
2023/12/04 05:17:24;;;;;;;13.60;7.45;;;;;;;;;;5066588;28;20028;-81
2023/12/04 05:19:49;;;;;;;15.73;7.00;;;;;;;;;;5061742;28;20029;-80
2023/12/04 05:22:16;;;;;;;12.68;7.15;;;;;;;;;;5058378;28;20063;-81
2023/12/04 05:24:41;;;;;;;13.50;7.25;;;;;;;;;;5067902;28;20021;-81
2023/12/04 05:27:08;;;;;;;13.57;7.38;;;;;;;;;;5072397;28;20024;-81
2023/12/04 05:29:34;;;;;;;14.48;7.60;;;;;;;;;;5059069;28;20115;-81
2023/12/04 05:32:00;;;;;;;13.38;7.28;;;;;;;;;;5060461;28;20032;-81
2023/12/04 05:34:25;;;;;;;12.98;6.28;;;;;;;;;;5065041;28;20024;-81
2023/12/04 05:36:50;;;;;;;13.85;6.80;;;;;;;;;;5064333;28;20029;-81
2023/12/04 05:39:16;;;;;;;13.23;6.78;;;;;;;;;;5060462;28;20402;-81
2023/12/04 05:41:44;;;;;;;13.23;7.15;;;;;;;;;;5059844;28;20024;-81
2023/12/04 05:44:09;;;;;;;13.82;7.03;;;;;;;;;;5068630;28;20081;-81
2023/12/04 05:46:35;;;;;;;12.73;7.28;;;;;;;;;;5067560;28;20017;-80
2023/12/04 05:49:00;;;;;;;12.15;6.95;;;;;;;;;;5072449;28;20047;-81
2023/12/04 05:51:26;;;;;;;12.45;6.35;;;;;;;;;;5066519;28;20028;-81
2023/12/04 05:53:51;;;;;;;12.25;6.50;;;;;;;;;;5064098;28;20088;-80
2023/12/04 05:56:16;;;;;;;14.38;6.95;;;;;;;;;;5067713;28;20036;-81
2023/12/04 05:58:42;;;;;;;14.00;6.65;;;;;;;;;;5062444;28;20021;-81
2023/12/04 06:01:07;;;;;;;14.02;6.85;;;;;;;;;;5065517;28;20462;-81
2023/12/04 06:03:33;;;;;;;12.70;6.57;;;;;;;;;;5067656;28;20028;-81
2023/12/04 06:05:58;;;;;;;12.80;6.70;;;;;;;;;;5068189;28;20043;-81
2023/12/04 06:08:24;;;;;;;11.90;6.50;;;;;;;;;;5070998;28;20029;-82
2023/12/04 06:10:49;;;;;;;11.45;6.30;;;;;;;;;;5068688;28;20033;-81
2023/12/04 06:13:14;;;;;;;11.90;6.82;;;;;;;;;;5068500;28;20021;-81
2023/12/04 06:15:40;;;;;;;11.18;6.13;;;;;;;;;;5071403;28;20028;-81
2023/12/04 06:18:06;;;;;;;12.88;6.82;;;;;;;;;;5067579;28;20115;-81
2023/12/04 06:20:32;;;;;;;12.23;6.53;;;;;;;;;;5065666;28;20025;-81
2023/12/04 06:22:58;;;;;;;11.68;6.70;;;;;;;;;;5066336;28;20546;-81
2023/12/04 06:25:24;;;;;;;11.27;6.30;;;;;;;;;;5064718;28;20113;-81
2023/12/04 06:27:51;;;;;;;11.55;6.22;;;;;;;;;;5074273;28;20025;-81
2023/12/04 06:30:17;;;;;;;11.50;5.57;;;;;;;;;;5066703;28;20036;-81
2023/12/04 06:32:42;;;;;;;11.85;6.47;;;;;;;;;;5064545;28;20028;-81
2023/12/04 06:35:09;;;;;;;12.65;7.00;;;;;;;;;;5064681;28;20086;-81
2023/12/04 06:37:38;;;;;;;12.80;5.95;;;;;;;;;;5067103;28;20032;-81
2023/12/04 06:40:04;;;;;;;12.00;6.22;;;;;;;;;;5063421;28;20099;-80
2023/12/04 06:42:29;;;;;;;14.18;6.53;;;;;;;;;;5063174;28;20020;-81
2023/12/04 06:44:55;;;;;;;11.70;6.28;;;;;;;;;;5067880;28;20024;-81
2023/12/04 06:47:23;;;;;;;11.88;6.50;;;;;;;;;;5062156;28;20390;-81
2023/12/04 06:49:48;;;;;;;12.02;6.32;;;;;;;;;;5066618;28;20037;-81
2023/12/04 06:52:14;;;;;;;10.73;6.22;;;;;;;;;;5068295;28;20035;-81
2023/12/04 06:54:39;;;;;;;10.77;5.70;;;;;;;;;;5065390;28;20066;-81
2023/12/04 06:57:04;;;;;;;11.05;6.20;;;;;;;;;;5067217;28;20020;-81
2023/12/04 06:59:30;;;;;;;10.40;5.82;;;;;;;;;;5063836;28;20036;-82
2023/12/04 07:01:55;;;;;;;10.52;5.65;;;;;;;;;;5063698;28;20360;-82
2023/12/04 07:04:21;;;;;;;12.63;6.40;;;;;;;;;;5065944;28;20482;-82
2023/12/04 07:06:51;;;;;;;9.93;5.95;;;;;;;;;;5069763;28;20048;-82
2023/12/04 07:09:16;;;;;;;10.70;5.32;;;;;;;;;;5065724;28;20052;-82
2023/12/04 07:11:42;;;;;;;10.20;5.85;;;;;;;;;;5067436;28;20082;-81
2023/12/04 07:14:09;;;;;;;10.15;5.38;;;;;;;;;;5069638;28;20069;-82
2023/12/04 07:16:42;;;;;;;11.90;5.40;;;;;;;;;;5069046;28;20119;-83
2023/12/04 07:19:09;;;;;;;9.27;5.05;;;;;;;;;;5067787;28;20119;-84
2023/12/04 07:21:35;;;;;;;13.48;6.38;;;;;;;;;;5071203;28;20025;-84
2023/12/04 07:24:00;;;;;;;10.40;5.72;;;;;;;;;;5067780;28;20074;-83
2023/12/04 07:26:26;;;;;;;11.82;5.85;;;;;;;;;;5071352;28;20021;-82
2023/12/04 07:28:51;;;;;;;9.77;5.07;;;;;;;;;;5066130;28;20033;-83
2023/12/04 07:31:17;;;;;;;10.45;5.13;;;;;;;;;;5067999;28;20033;-82
2023/12/04 07:33:43;;;;;;;9.63;5.47;;;;;;;;;;5068836;28;20205;-82
2023/12/04 07:36:08;;;;;;;10.23;5.43;;;;;;;;;;5064603;28;20036;-83
2023/12/04 07:38:34;;;;;;;10.88;5.53;;;;;;;;;;5068149;28;20437;-83
2023/12/04 07:40:59;;;;;;;9.07;5.18;;;;;;;;;;5099859;27;20029;-83
2023/12/04 07:43:25;;;;;;;11.23;5.57;;;;;;;;;;5069127;28;20457;-83
2023/12/04 07:45:50;;;;;;;9.85;5.55;;;;;;;;;;5046630;28;20041;-82
2023/12/04 07:48:16;;;;;;;11.07;5.55;;;;;;;;;;5066319;28;20082;-83
2023/12/04 07:50:42;;;;;;;9.30;4.97;;;;;;;;;;5064639;28;20082;-82
2023/12/04 07:53:11;;;;;;;10.20;5.07;;;;;;;;;;5066951;28;20016;-83
2023/12/04 07:55:37;;;;;;;10.27;5.78;;;;;;;;;;5069000;28;20036;-83
2023/12/04 07:58:02;;;;;;;10.15;5.63;;;;;;;;;;5065717;28;20276;-83
2023/12/04 08:00:28;;;;;;;9.18;5.28;;;;;;;;;;5067271;28;20368;-83
2023/12/04 08:02:53;;;;;;;9.73;5.22;;;;;;;;;;5069915;28;20119;-82
2023/12/04 08:05:19;;;;;;;9.43;5.00;;;;;;;;;;5063174;28;20024;-83
2023/12/04 08:07:44;;;;;;;9.88;5.60;;;;;;;;;;5071377;28;20367;-82
2023/12/04 08:10:10;;;;;;;9.45;5.47;;;;;;;;;;5068119;28;20405;-83
2023/12/04 08:12:35;;;;;;;11.00;6.10;;;;;;;;;;5065541;28;20032;-83
2023/12/04 08:15:03;;;;;;;9.98;5.07;;;;;;;;;;5067466;28;20398;-82
2023/12/04 08:17:29;;;;;;;9.93;5.00;;;;;;;;;;5065985;28;20056;-83
2023/12/04 08:19:54;;;;;;;10.40;5.07;;;;;;;;;;5068955;28;20056;-83
2023/12/04 08:22:20;;;;;;;10.40;5.63;;;;;;;;;;5063710;28;20127;-83
2023/12/04 08:24:45;;;;;;;10.30;5.20;;;;;;;;;;5064220;28;20032;-83
2023/12/04 08:27:10;;;;;;;9.02;4.82;;;;;;;;;;5071662;28;20078;-81
2023/12/04 08:29:36;;;;;;;9.18;5.25;;;;;;;;;;5072358;28;20070;-81
2023/12/04 08:32:03;;;;;;;9.90;4.85;;;;;;;;;;5072189;28;20457;-80
2023/12/04 08:34:28;;;;;;;9.15;4.88;;;;;;;;;;5066093;28;20026;-81
2023/12/04 08:36:53;;;;;;;10.27;5.55;;;;;;;;;;5070866;28;20024;-81
2023/12/04 08:39:20;;;;;;;9.55;4.95;;;;;;;;;;5069991;28;20111;-79
2023/12/04 08:41:47;;;;;;;9.65;4.82;;;;;;;;;;5072526;28;20025;-80
2023/12/04 08:44:13;;;;;;;9.88;5.72;;;;;;;;;;5067841;28;20099;-81
2023/12/04 08:46:38;;;;;;;9.10;5.13;;;;;;;;;;5065120;28;20066;-81
2023/12/04 08:49:04;;;;;;;9.68;5.20;;;;;;;;;;5069275;28;20036;-80
2023/12/04 08:51:29;;;;;;;9.77;5.30;;;;;;;;;;5070708;28;20447;-80
2023/12/04 08:53:55;;;;;;;9.10;5.25;;;;;;;;;;5068643;28;20032;-80
2023/12/04 08:56:20;;;;;;;9.57;5.30;;;;;;;;;;5070351;28;20046;-80
2023/12/04 08:58:45;;;;;;;11.85;5.40;;;;;;;;;;5066541;28;20056;-82
2023/12/04 09:01:11;;;;;;;11.00;5.88;;;;;;;;;;5068531;28;20389;-83
2023/12/04 09:03:36;;;;;;;11.65;5.65;;;;;;;;;;5067766;28;20024;-83
2023/12/04 09:06:02;;;;;;;10.38;5.70;;;;;;;;;;5070152;28;20020;-82
2023/12/04 09:08:27;;;;;;;10.15;5.72;;;;;;;;;;5061365;28;20513;-82
2023/12/04 09:10:56;;;;;;;9.07;4.90;;;;;;;;;;5053190;28;20370;-82
2023/12/04 09:13:21;;;;;;;9.52;5.05;;;;;;;;;;5061833;28;20020;-82
2023/12/04 09:15:47;;;;;;;8.38;4.95;;;;;;;;;;5055786;28;20054;-83
2023/12/04 09:18:12;;;;;;;8.95;5.38;;;;;;;;;;5062574;28;20029;-82
2023/12/04 09:20:38;;;;;;;10.13;5.15;;;;;;;;;;5058762;28;20143;-83
2023/12/04 09:23:03;;;;;;;9.52;5.25;;;;;;;;;;5057394;28;20400;-81
2023/12/04 09:25:28;;;;;;;9.95;5.47;;;;;;;;;;5063978;28;20036;-83
2023/12/04 09:27:54;;;;;;;9.75;5.72;;;;;;;;;;5063172;28;20028;-83
2023/12/04 09:30:19;;;;;;;9.18;5.35;;;;;;;;;;5062917;28;20029;-82
2023/12/04 09:32:45;;;;;;;11.43;5.72;;;;;;;;;;5070729;28;20021;-82
2023/12/04 09:35:10;;;;;;;10.60;6.43;;;;;;;;;;5069183;28;20481;-82
2023/12/04 09:37:36;;;;;;;10.07;5.85;;;;;;;;;;5067342;28;20437;-80
2023/12/04 09:40:02;;;;;;;9.73;5.75;;;;;;;;;;5070037;28;20044;-80
2023/12/04 09:42:29;;;;;;;11.32;5.82;;;;;;;;;;5070226;28;20047;-79
2023/12/04 09:44:54;;;;;;;10.15;5.72;;;;;;;;;;5086937;28;20055;-79
2023/12/04 09:47:22;;;;;;;10.77;5.50;;;;;;;;;;5067352;28;20467;-80
2023/12/04 09:49:52;;;;;;;11.23;5.93;;;;;;;;;;5062627;28;20028;-80
2023/12/04 09:52:19;;;;;;;11.55;5.47;;;;;;;;;;5068636;28;20025;-80
2023/12/04 09:54:45;;;;;;;11.43;5.50;;;;;;;;;;5069708;28;20107;-79
2023/12/04 09:57:12;;;;;;;13.02;6.25;;;;;;;;;;5070884;28;20021;-79
2023/12/04 09:59:38;;;;;;;10.35;6.10;;;;;;;;;;5064855;28;20028;-80
2023/12/04 10:02:05;;;;;;;11.10;6.18;;;;;;;;;;5070560;28;20032;-79
2023/12/04 10:04:31;;;;;;;11.40;5.63;;;;;;;;;;5065051;28;20033;-80
2023/12/04 10:06:57;;;;;;;12.20;6.78;;;;;;;;;;5064685;28;20021;-83
2023/12/04 10:09:22;;;;;;;11.73;6.72;;;;;;;;;;5068020;28;20032;-82
2023/12/04 10:11:50;;;;;;;12.20;7.03;;;;;;;;;;5063206;28;20390;-82
2023/12/04 10:14:18;;;;;;;10.10;6.00;;;;;;;;;;5068205;28;20020;-82
2023/12/04 10:16:44;;;;;;;11.65;6.40;;;;;;;;;;5070880;28;20032;-82
2023/12/04 10:19:26;;;;;;;11.73;5.93;;;;;;;;;;5052237;28;20036;-81
2023/12/04 10:21:53;;;;;;;13.25;6.50;;;;;;;;;;5086063;28;20482;-82
2023/12/04 10:24:35;;;;;;;12.27;6.57;;;;;;;;;;5068017;28;20024;-81
2023/12/04 10:27:01;;;;;;;11.35;6.32;;;;;;;;;;5068470;28;20673;-82
2023/12/04 10:29:30;;;;;;;11.00;6.82;;;;;;;;;;5069227;28;20078;-82
2023/12/04 10:31:58;;;;;;;11.73;6.65;;;;;;;;;;5066314;28;20367;-81
2023/12/04 10:34:26;;;;;;;13.18;7.07;;;;;;;;;;5070645;28;20032;-81
2023/12/04 10:36:52;;;;;;;12.90;7.13;;;;;;;;;;5073088;28;20024;-82
2023/12/04 10:39:17;;;;;;;12.13;7.28;;;;;;;;;;5073047;28;20031;-82
2023/12/04 10:41:43;;;;;;;13.02;7.20;;;;;;;;;;5090834;28;20021;-82
2023/12/04 10:44:09;;;;;;;12.80;7.10;;;;;;;;;;5073005;28;20024;-82
2023/12/04 10:46:36;;;;;;;13.65;7.40;;;;;;;;;;5074852;28;20111;-83
2023/12/04 10:49:04;;;;;;;11.88;7.10;;;;;;;;;;5069878;28;20017;-79
2023/12/04 10:51:30;;;;;;;13.50;7.40;;;;;;;;;;5069210;28;20032;-78
2023/12/04 10:53:56;;;;;;;14.23;6.95;;;;;;;;;;5068715;28;20386;-79
2023/12/04 10:56:35;;;;;;;12.88;7.57;;;;;;;;;;5065830;28;20025;-79
2023/12/04 10:59:01;;;;;;;12.23;7.32;;;;;;;;;;5068413;28;20041;-79
2023/12/04 11:01:27;;;;;;;13.82;7.32;;;;;;;;;;5070958;28;20025;-79
2023/12/04 11:03:56;;;;;;;13.73;7.82;;;;;;;;;;5055872;28;20599;-79
2023/12/04 11:06:23;;;;;;;13.02;6.82;;;;;;;;;;5067679;28;20029;-79
2023/12/04 11:08:52;;;;;;;12.48;7.25;;;;;;;;;;5073263;28;20035;-79
2023/12/04 11:11:36;;;;;;;14.20;7.93;;;;;;;;;;5067061;28;20021;-79
2023/12/04 11:14:05;;;;;;;14.60;7.20;;;;;;;;;;5058542;28;20483;-79
2023/12/04 11:16:57;;;;;;;13.15;6.97;;;;;;;;;;5072298;28;20012;-78
2023/12/04 11:19:47;;;;;;;12.93;7.45;;;;;;;;;;5070393;28;20029;-82
2023/12/04 11:22:14;;;;;;;12.57;6.95;;;;;;;;;;5066950;28;20021;-82
2023/12/04 11:24:40;;;;;;;15.27;7.80;;;;;;;;;;5049705;28;20059;-81
2023/12/04 11:27:07;;;;;;;14.82;7.72;;;;;;;;;;5067002;28;20032;-82
2023/12/04 11:29:33;;;;;;;13.30;7.43;;;;;;;;;;5067032;28;20486;-82
2023/12/04 11:31:58;;;;;;;13.32;7.68;;;;;;;;;;5072751;28;20017;-82
2023/12/04 11:34:24;;;;;;;14.40;7.63;;;;;;;;;;5070464;28;20093;-81
2023/12/04 11:36:51;;;;;;;12.35;7.47;;;;;;;;;;5070160;28;20052;-82
2023/12/04 11:39:19;;;;;;;13.32;7.60;;;;;;;;;;5066960;28;20028;-82
2023/12/04 11:41:45;;;;;;;15.02;7.55;;;;;;;;;;5063933;28;20467;-82
2023/12/04 11:44:14;;;;;;;13.57;7.90;;;;;;;;;;5064982;28;20056;-82
2023/12/04 11:46:55;;;;;;;14.70;7.38;;;;;;;;;;5067843;28;20115;-82
2023/12/04 11:49:30;;;;;;;13.77;7.10;;;;;;;;;;5065636;28;20034;-82
2023/12/04 11:52:01;;;;;;;14.88;7.70;;;;;;;;;;5061865;28;20035;-82
2023/12/04 11:54:28;;;;;;;13.05;7.00;;;;;;;;;;5068994;28;20544;-81
2023/12/04 11:56:57;;;;;;;13.65;7.80;;;;;;;;;;5063078;28;20406;-81
2023/12/04 11:59:22;;;;;;;14.70;8.05;;;;;;;;;;5068953;28;20028;-81
2023/12/04 12:01:50;;;;;;;14.35;8.10;;;;;;;;;;5070918;28;20489;-81
2023/12/04 12:04:17;;;;;;;12.98;7.78;;;;;;;;;;5068092;28;20023;-82
2023/12/04 12:06:44;;;;;;;14.18;7.95;;;;;;;;;;5068161;28;20021;-81
2023/12/04 12:09:09;;;;;;;13.93;8.05;;;;;;;;;;5074849;28;20031;-81
2023/12/04 12:11:36;;;;;;;15.13;8.20;;;;;;;;;;5068294;28;20032;-82
2023/12/04 12:14:02;;;;;;;13.88;7.03;;;;;;;;;;5066254;28;20086;-82
2023/12/04 12:16:27;;;;;;;13.25;7.05;;;;;;;;;;5063381;28;20033;-82
2023/12/04 12:18:53;;;;;;;12.85;7.70;;;;;;;;;;5068187;28;20123;-82
2023/12/04 12:21:19;;;;;;;14.13;7.78;;;;;;;;;;5046199;28;20029;-82
2023/12/04 12:23:44;;;;;;;12.88;7.68;;;;;;;;;;5067753;28;20039;-82
2023/12/04 12:26:09;;;;;;;15.40;8.27;;;;;;;;;;5054824;28;20040;-82
2023/12/04 12:28:37;;;;;;;13.48;7.95;;;;;;;;;;5071924;28;20024;-78
2023/12/04 12:31:05;;;;;;;14.85;7.32;;;;;;;;;;5071650;28;20025;-78
2023/12/04 12:33:31;;;;;;;12.70;7.22;;;;;;;;;;5066065;28;20063;-78
2023/12/04 12:35:58;;;;;;;13.38;7.78;;;;;;;;;;5094286;28;20052;-78
2023/12/04 12:38:24;;;;;;;13.50;7.75;;;;;;;;;;5071474;28;20119;-78
2023/12/04 12:40:50;;;;;;;11.25;7.05;;;;;;;;;;5072051;28;20029;-78
2023/12/04 12:43:16;;;;;;;14.02;7.60;;;;;;;;;;5068208;28;20046;-78
2023/12/04 12:45:49;;;;;;;11.80;6.72;;;;;;;;;;5066697;28;20029;-78
2023/12/04 12:48:16;;;;;;;14.15;7.63;;;;;;;;;;5070679;28;20104;-78
2023/12/04 12:50:43;;;;;;;14.38;7.70;;;;;;;;;;5067611;28;20055;-78
2023/12/04 12:53:08;;;;;;;13.07;7.43;;;;;;;;;;5069863;28;20048;-78
2023/12/04 12:55:38;;;;;;;16.38;7.70;;;;;;;;;;5067815;28;20059;-78
2023/12/04 12:58:05;;;;;;;14.63;7.57;;;;;;;;;;5066975;28;20101;-78
2023/12/04 13:00:33;;;;;;;12.55;7.38;;;;;;;;;;5068772;28;20032;-78
2023/12/04 13:02:58;;;;;;;13.15;7.78;;;;;;;;;;5065880;28;20020;-79
2023/12/04 13:05:23;;;;;;;11.82;7.03;;;;;;;;;;5069387;28;20028;-78
2023/12/04 13:07:49;;;;;;;13.55;7.55;;;;;;;;;;5068959;28;20565;-82
2023/12/04 13:10:14;;;;;;;14.52;7.35;;;;;;;;;;5073936;28;20043;-81
2023/12/04 13:12:40;;;;;;;13.48;7.63;;;;;;;;;;5070332;28;20021;-81
2023/12/04 13:15:06;;;;;;;14.45;7.93;;;;;;;;;;5061886;28;20053;-81
2023/12/04 13:17:31;;;;;;;11.93;7.15;;;;;;;;;;5069042;28;20036;-81
2023/12/04 13:19:57;;;;;;;12.90;6.75;;;;;;;;;;5069590;28;20379;-81
2023/12/04 13:22:22;;;;;;;12.98;7.30;;;;;;;;;;5064129;28;20079;-81
2023/12/04 13:24:47;;;;;;;16.88;7.60;;;;;;;;;;5066190;28;20032;-81
2023/12/04 13:27:13;;;;;;;13.27;7.00;;;;;;;;;;5067200;28;20232;-82
2023/12/04 13:29:38;;;;;;;13.05;6.63;;;;;;;;;;5070911;28;20028;-81
2023/12/04 13:32:04;;;;;;;12.15;6.65;;;;;;;;;;5064627;28;20482;-82
2023/12/04 13:34:30;;;;;;;13.07;7.03;;;;;;;;;;5065912;28;20032;-81
2023/12/04 13:36:56;;;;;;;11.52;6.82;;;;;;;;;;5065655;28;20035;-81
2023/12/04 13:39:27;;;;;;;12.10;6.82;;;;;;;;;;5069544;28;20059;-81
2023/12/04 13:44:37;;;;;;;12.50;7.03;;;;;;;;;;5068779;28;20150;-82
2023/12/04 13:47:03;;;;;;;13.18;6.90;;;;;;;;;;5071088;28;20044;-81
2023/12/04 13:49:28;;;;;;;14.45;7.25;;;;;;;;;;5066680;28;20028;-81
2023/12/04 13:51:54;;;;;;;11.63;6.40;;;;;;;;;;5063658;28;20438;-82
2023/12/04 13:54:21;;;;;;;12.55;7.22;;;;;;;;;;5067001;28;20070;-80
2023/12/04 13:56:56;;;;;;;12.98;6.78;;;;;;;;;;5066405;28;20039;-81
2023/12/04 13:59:21;;;;;;;11.18;6.60;;;;;;;;;;5068467;28;20028;-81
2023/12/04 14:01:49;;;;;;;14.10;7.35;;;;;;;;;;5069433;28;20032;-81
2023/12/04 14:04:15;;;;;;;12.43;6.80;;;;;;;;;;5069022;28;20028;-80
2023/12/04 14:06:41;;;;;;;11.93;6.95;;;;;;;;;;5069670;28;20075;-81
2023/12/04 14:09:14;;;;;;;12.43;7.07;;;;;;;;;;5071919;28;20031;-81
2023/12/04 14:11:43;;;;;;;12.77;6.55;;;;;;;;;;5071055;28;20024;-82
2023/12/04 14:14:09;;;;;;;12.90;7.05;;;;;;;;;;5066783;28;20029;-81
2023/12/04 14:16:34;;;;;;;11.25;6.75;;;;;;;;;;5055430;28;20021;-80
2023/12/04 14:19:00;;;;;;;12.65;6.35;;;;;;;;;;5061627;28;20025;-78
2023/12/04 14:21:26;;;;;;;14.32;7.60;;;;;;;;;;5069748;28;20728;-78
2023/12/04 14:23:51;;;;;;;13.18;6.60;;;;;;;;;;5064881;28;20035;-78
2023/12/04 14:26:17;;;;;;;12.90;6.50;;;;;;;;;;5068078;28;20055;-78
2023/12/04 14:28:43;;;;;;;11.95;6.68;;;;;;;;;;5042774;28;20060;-78